createdAt,value
2022-10-15T00:00:18.146Z,12.44
2022-10-15T00:02:47.342Z,12.35
2022-10-15T00:05:16.673Z,12.44
2022-10-15T00:07:45.915Z,12.46
2022-10-15T00:10:17.210Z,12.43
2022-10-15T00:12:46.706Z,12.40
2022-10-15T00:15:16.138Z,12.37
2022-10-15T00:17:45.326Z,12.54
2022-10-15T00:20:14.951Z,12.56
2022-10-15T00:22:44.225Z,12.33
2022-10-15T00:25:13.374Z,12.55
2022-10-15T00:27:43.908Z,12.65
2022-10-15T00:30:14.537Z,12.59
2022-10-15T00:32:43.786Z,12.62
2022-10-15T00:35:12.937Z,12.45
2022-10-15T00:37:44.198Z,12.65
2022-10-15T00:40:15.743Z,12.72
2022-10-15T00:42:46.264Z,12.97
2022-10-15T00:45:17.514Z,12.94
2022-10-15T00:47:50.428Z,13.04
2022-10-15T00:50:24.775Z,12.96
2022-10-15T00:53:02.350Z,13.10
2022-10-15T00:55:34.072Z,13.21
2022-10-15T00:58:10.418Z,13.13
2022-10-15T01:00:39.645Z,13.09
2022-10-15T01:03:09.381Z,13.13
2022-10-15T01:05:39.852Z,13.26
2022-10-15T01:08:13.314Z,13.27
2022-10-15T01:10:50.182Z,13.24
2022-10-15T01:13:34.918Z,13.30
2022-10-15T01:18:55.756Z,13.29
2022-10-15T01:21:33.941Z,13.25
2022-10-15T01:24:48.421Z,13.36
2022-10-15T01:27:27.496Z,13.46
2022-10-15T01:30:26.776Z,13.43
2022-10-15T01:33:14.835Z,13.48
2022-10-15T01:35:51.780Z,13.54
2022-10-15T01:38:38.350Z,13.58
2022-10-15T01:41:15.664Z,13.68
2022-10-15T01:43:51.789Z,13.63
2022-10-15T01:46:54.023Z,13.74
2022-10-15T01:49:30.082Z,13.61
2022-10-15T01:52:03.469Z,13.76
2022-10-15T01:54:33.080Z,13.83
2022-10-15T01:57:04.312Z,13.93
2022-10-15T01:59:35.239Z,13.92
2022-10-15T02:02:07.557Z,13.97
2022-10-15T02:04:38.315Z,13.90
2022-10-15T02:07:10.762Z,13.88
2022-10-15T02:09:52.459Z,13.93
2022-10-15T02:12:39.290Z,13.84
2022-10-15T02:15:17.809Z,13.93
2022-10-15T02:18:02.434Z,13.96
2022-10-15T02:20:41.724Z,13.88
2022-10-15T02:23:19.732Z,13.92
2022-10-15T02:25:53.394Z,13.96
2022-10-15T02:28:25.990Z,13.99
2022-10-15T02:30:58.550Z,14.03
2022-10-15T02:33:31.191Z,14.02
2022-10-15T02:36:01.270Z,13.87
2022-10-15T02:38:34.869Z,13.53
2022-10-15T02:41:04.599Z,13.65
2022-10-15T02:43:33.796Z,13.55
2022-10-15T02:46:02.980Z,13.52
2022-10-15T02:48:33.651Z,13.42
2022-10-15T02:51:02.823Z,13.45
2022-10-15T02:53:35.329Z,13.39
2022-10-15T02:56:06.636Z,13.24
2022-10-15T02:58:35.989Z,13.11
2022-10-15T03:01:06.156Z,12.93
2022-10-15T03:03:37.176Z,12.89
2022-10-15T03:06:07.773Z,12.61
2022-10-15T03:08:37.103Z,12.17
2022-10-15T03:11:06.961Z,11.88
2022-10-15T03:13:38.465Z,11.66
2022-10-15T03:16:09.593Z,11.36
2022-10-15T03:18:41.346Z,11.31
2022-10-15T03:21:12.554Z,11.34
2022-10-15T03:23:42.325Z,11.42
2022-10-15T03:26:19.815Z,11.46
2022-10-15T03:28:49.190Z,11.11
2022-10-15T03:31:31.511Z,11.14
2022-10-15T03:34:05.551Z,11.19
2022-10-15T03:36:35.020Z,11.16
2022-10-15T03:39:08.452Z,11.15
2022-10-15T03:41:38.951Z,10.93
2022-10-15T03:44:10.108Z,10.81
2022-10-15T03:46:44.269Z,10.81
2022-10-15T03:49:15.307Z,10.49
2022-10-15T03:51:44.539Z,10.65
2022-10-15T03:54:14.595Z,10.56
2022-10-15T03:56:50.660Z,10.56
2022-10-15T03:59:31.953Z,10.55
2022-10-15T04:02:04.212Z,10.46
2022-10-15T04:04:36.403Z,10.35
2022-10-15T04:07:05.973Z,10.43
2022-10-15T04:09:36.086Z,10.22
2022-10-15T04:12:28.503Z,10.08
2022-10-15T04:14:58.548Z,10.10
2022-10-15T04:17:27.866Z,10.11
2022-10-15T04:19:58.618Z,10.01
2022-10-15T04:22:29.177Z,10.13
2022-10-15T04:25:02.662Z,10.03
2022-10-15T04:27:32.194Z,9.98
2022-10-15T04:30:09.967Z,9.98
2022-10-15T04:32:42.812Z,9.87
2022-10-15T04:35:14.696Z,9.99
2022-10-15T04:38:15.821Z,10.07
2022-10-15T04:41:06.758Z,9.92
2022-10-15T04:43:50.098Z,9.78
2022-10-15T04:46:20.116Z,9.79
2022-10-15T04:48:49.679Z,9.98
2022-10-15T04:51:22.770Z,9.85
2022-10-15T04:54:17.825Z,9.97
2022-10-15T04:57:06.374Z,9.89
2022-10-15T04:59:35.697Z,9.93
2022-10-15T05:02:25.680Z,10.04
2022-10-15T05:05:11.030Z,10.12
2022-10-15T05:07:51.434Z,10.06
2022-10-15T05:10:20.876Z,10.05
2022-10-15T05:12:55.769Z,10.01
2022-10-15T05:15:32.363Z,10.04
2022-10-15T05:18:01.448Z,9.95
2022-10-15T05:20:38.573Z,10.11
2022-10-15T05:23:13.956Z,10.14
2022-10-15T05:25:51.676Z,10.01
2022-10-15T05:28:25.795Z,10.09
2022-10-15T05:30:55.132Z,10.05
2022-10-15T05:33:24.448Z,9.87
2022-10-15T05:35:53.975Z,9.83
2022-10-15T05:38:26.189Z,9.88
2022-10-15T05:40:55.440Z,9.95
2022-10-15T05:43:27.346Z,9.67
2022-10-15T05:45:56.638Z,9.97
2022-10-15T05:48:25.933Z,9.94
2022-10-15T05:50:55.640Z,10.08
2022-10-15T05:53:30.238Z,9.93
2022-10-15T05:56:09.347Z,9.85
2022-10-15T05:58:38.992Z,9.91
2022-10-15T06:01:11.412Z,9.92
2022-10-15T06:03:41.710Z,9.85
2022-10-15T06:06:19.278Z,9.85
2022-10-15T06:08:50.989Z,9.88
2022-10-15T06:11:20.952Z,9.97
2022-10-15T06:13:50.190Z,9.97
2022-10-15T06:16:23.572Z,9.93
2022-10-15T06:18:54.189Z,9.96
2022-10-15T06:21:23.449Z,9.97
2022-10-15T06:23:53.978Z,9.97
2022-10-15T06:26:23.251Z,9.95
2022-10-15T06:28:52.511Z,9.80
2022-10-15T06:31:21.845Z,10.20
2022-10-15T06:33:51.059Z,10.17
2022-10-15T06:36:21.810Z,10.21
2022-10-15T06:38:50.999Z,10.22
2022-10-15T06:41:21.530Z,10.25
2022-10-15T06:46:20.783Z,10.30
2022-10-15T06:48:51.949Z,10.26
2022-10-15T06:51:21.243Z,10.24
2022-10-15T06:53:52.725Z,10.35
2022-10-15T06:56:23.561Z,10.32
2022-10-15T06:58:53.153Z,10.29
2022-10-15T07:01:22.665Z,10.33
2022-10-15T07:03:52.538Z,10.32
2022-10-15T07:06:21.625Z,10.16
2022-10-15T07:08:50.825Z,10.30
2022-10-15T07:11:20.017Z,10.38
2022-10-15T07:13:50.612Z,10.39
2022-10-15T07:16:19.804Z,10.34
2022-10-15T07:18:50.072Z,10.43
2022-10-15T07:21:19.362Z,10.52
2022-10-15T07:23:48.570Z,10.42
2022-10-15T07:26:17.793Z,10.51
2022-10-15T07:28:47.160Z,10.35
2022-10-15T07:31:17.844Z,10.48
2022-10-15T07:33:47.156Z,10.50
2022-10-15T07:36:16.433Z,10.49
2022-10-15T07:38:45.598Z,10.56
2022-10-15T07:41:15.535Z,10.62
2022-10-15T07:43:45.921Z,10.64
2022-10-15T07:46:16.650Z,10.69
2022-10-15T07:48:46.001Z,10.77
2022-10-15T07:51:15.393Z,10.88
2022-10-15T07:53:45.190Z,10.81
2022-10-15T07:56:16.300Z,10.99
2022-10-15T07:58:51.770Z,10.93
2022-10-15T08:01:23.359Z,10.92
2022-10-15T08:03:53.013Z,11.10
2022-10-15T08:06:22.339Z,10.94
2022-10-15T08:08:51.673Z,11.10
2022-10-15T08:11:20.983Z,11.24
2022-10-15T08:13:50.345Z,11.30
2022-10-15T08:16:20.389Z,11.28
2022-10-15T08:19:01.425Z,11.43
2022-10-15T08:21:30.749Z,11.42
2022-10-15T08:24:01.060Z,11.59
2022-10-15T08:26:35.775Z,11.65
2022-10-15T08:29:05.224Z,11.74
2022-10-15T08:31:34.449Z,11.90
2022-10-15T08:34:05.133Z,12.20
2022-10-15T08:36:34.696Z,12.19
2022-10-15T08:39:03.948Z,12.65
2022-10-15T08:41:39.135Z,13.06
2022-10-15T08:44:16.329Z,13.37
2022-10-15T08:46:50.888Z,13.84
2022-10-15T08:49:36.351Z,14.12
2022-10-15T08:52:17.312Z,14.42
2022-10-15T08:54:46.833Z,14.59
2022-10-15T08:57:31.720Z,14.69
2022-10-15T09:00:06.707Z,14.77
2022-10-15T09:02:43.882Z,14.66
2022-10-15T09:05:30.380Z,14.57
2022-10-15T09:08:08.941Z,14.37
2022-10-15T09:10:47.616Z,14.15
2022-10-15T09:13:27.412Z,13.99
2022-10-15T09:16:01.530Z,14.00
2022-10-15T09:18:35.313Z,13.80
2022-10-15T09:21:07.216Z,13.91
2022-10-15T09:23:37.630Z,13.91
2022-10-15T09:26:18.545Z,13.93
2022-10-15T09:28:54.639Z,14.05
2022-10-15T09:31:34.363Z,14.11
2022-10-15T09:34:14.824Z,13.97
2022-10-15T09:36:52.006Z,13.64
2022-10-15T09:39:44.898Z,13.29
2022-10-15T09:42:28.629Z,13.28
2022-10-15T09:45:02.458Z,13.28
2022-10-15T09:47:34.884Z,13.37
2022-10-15T09:50:07.279Z,13.48
2022-10-15T09:52:59.481Z,13.44
2022-10-15T09:55:38.324Z,13.52
2022-10-15T09:58:15.827Z,13.65
2022-10-15T10:01:04.321Z,13.55
2022-10-15T10:03:38.365Z,13.45
2022-10-15T10:06:11.171Z,13.65
2022-10-15T10:08:53.662Z,13.61
2022-10-15T10:11:25.589Z,13.63
2022-10-15T10:13:58.352Z,13.64
2022-10-15T10:16:30.298Z,13.62
2022-10-15T10:19:13.879Z,13.81
2022-10-15T10:21:46.180Z,14.02
2022-10-15T10:24:30.773Z,14.11
2022-10-15T10:27:01.069Z,13.94
2022-10-15T10:29:34.419Z,13.99
2022-10-15T10:32:14.140Z,13.85
2022-10-15T10:34:51.519Z,13.82
2022-10-15T10:37:22.858Z,13.78
2022-10-15T10:40:00.133Z,13.99
2022-10-15T10:42:34.740Z,13.91
2022-10-15T10:45:23.237Z,14.11
2022-10-15T10:47:52.556Z,14.57
2022-10-15T10:50:33.630Z,14.95
2022-10-15T10:53:25.502Z,15.79
2022-10-15T10:55:58.710Z,16.42
2022-10-15T10:58:31.574Z,17.07
2022-10-15T11:01:00.877Z,17.57
2022-10-15T11:03:36.602Z,17.86
2022-10-15T11:06:57.471Z,17.99
2022-10-15T11:09:52.246Z,18.08
2022-10-15T11:12:52.370Z,18.33
2022-10-15T11:15:42.322Z,18.58
2022-10-15T11:18:34.212Z,18.90
2022-10-15T11:21:19.241Z,18.92
2022-10-15T11:24:16.129Z,19.07
2022-10-15T11:27:11.022Z,19.28
2022-10-15T11:29:56.343Z,19.21
2022-10-15T11:33:06.184Z,19.32
2022-10-15T11:35:59.537Z,19.40
2022-10-15T11:38:39.724Z,19.49
2022-10-15T11:41:32.307Z,19.30
2022-10-15T11:44:26.377Z,19.69
2022-10-15T11:47:23.459Z,19.74
2022-10-15T11:50:14.960Z,19.90
2022-10-15T11:53:04.229Z,19.92
2022-10-15T11:55:42.051Z,20.30
2022-10-15T11:58:17.953Z,20.55
2022-10-15T12:00:53.343Z,20.48
2022-10-15T12:03:28.303Z,20.28
2022-10-15T12:06:02.450Z,20.27
2022-10-15T12:08:38.547Z,19.93
2022-10-15T12:11:35.067Z,19.51
2022-10-15T12:14:21.605Z,18.90
2022-10-15T12:17:05.953Z,18.99
2022-10-15T12:19:44.432Z,18.92
2022-10-15T12:22:14.625Z,18.91
2022-10-15T12:24:56.534Z,18.59
2022-10-15T12:27:34.455Z,18.16
2022-10-15T12:30:27.951Z,17.72
2022-10-15T12:32:57.537Z,17.59
2022-10-15T12:35:36.684Z,17.31
2022-10-15T12:38:24.643Z,16.96
2022-10-15T12:41:06.423Z,16.42
2022-10-15T12:43:40.075Z,15.81
2022-10-15T12:46:12.341Z,15.14
2022-10-15T12:48:44.211Z,14.28
2022-10-15T12:51:42.106Z,13.32
2022-10-15T12:54:40.741Z,13.07
2022-10-15T12:57:55.532Z,12.71
2022-10-15T13:00:44.047Z,12.46
2022-10-15T13:03:27.032Z,12.20
2022-10-15T13:05:56.655Z,12.30
2022-10-15T13:08:47.003Z,12.63
2022-10-15T13:11:23.949Z,12.66
2022-10-15T13:13:59.703Z,12.79
2022-10-15T13:16:29.941Z,13.02
2022-10-15T13:19:00.619Z,13.28
2022-10-15T13:21:54.067Z,13.31
2022-10-15T13:24:28.171Z,13.53
2022-10-15T13:27:01.622Z,13.86
2022-10-15T13:29:30.979Z,14.32
2022-10-15T13:32:01.629Z,14.94
2022-10-15T13:34:34.787Z,15.28
2022-10-15T13:37:05.865Z,15.99
2022-10-15T13:39:40.418Z,16.47
2022-10-15T13:42:16.280Z,17.03
2022-10-15T13:44:57.185Z,17.06
2022-10-15T13:47:33.330Z,17.42
2022-10-15T13:50:30.826Z,17.58
2022-10-15T13:53:16.281Z,17.52
2022-10-15T13:55:50.828Z,17.61
2022-10-15T13:58:26.497Z,17.47
2022-10-15T14:01:01.500Z,17.16
2022-10-15T14:03:31.998Z,16.73
2022-10-15T14:06:17.919Z,16.18
2022-10-15T14:08:49.968Z,16.20
2022-10-15T14:11:21.801Z,16.21
2022-10-15T14:13:53.780Z,16.25
2022-10-15T14:16:29.277Z,16.03
2022-10-15T14:19:09.465Z,15.82
2022-10-15T14:21:47.294Z,15.72
2022-10-15T14:24:21.752Z,15.53
2022-10-15T14:26:52.511Z,15.36
2022-10-15T14:29:28.043Z,15.34
2022-10-15T14:31:57.583Z,15.45
2022-10-15T14:34:38.862Z,15.38
2022-10-15T14:37:43.160Z,15.23
2022-10-15T14:40:23.449Z,15.60
2022-10-15T14:43:05.549Z,15.98
2022-10-15T14:45:42.681Z,16.61
2022-10-15T14:48:20.076Z,16.97
2022-10-15T14:50:49.335Z,17.56
2022-10-15T14:53:25.801Z,17.51
2022-10-15T14:55:59.896Z,17.77
2022-10-15T14:58:31.928Z,18.02
2022-10-15T15:01:03.868Z,18.01
2022-10-15T15:03:42.133Z,18.02
2022-10-15T15:06:12.092Z,17.74
2022-10-15T15:08:41.251Z,17.94
2022-10-15T15:11:17.193Z,17.86
2022-10-15T15:13:48.680Z,17.81
2022-10-15T15:16:19.257Z,17.91
2022-10-15T15:18:48.989Z,17.55
2022-10-15T15:21:23.721Z,17.38
2022-10-15T15:23:53.093Z,16.96
2022-10-15T15:26:22.785Z,16.94
2022-10-15T15:28:53.838Z,16.70
2022-10-15T15:31:23.135Z,16.25
2022-10-15T15:33:52.350Z,16.40
2022-10-15T15:36:23.804Z,16.27
2022-10-15T15:38:58.637Z,15.98
2022-10-15T15:41:28.398Z,15.90
2022-10-15T15:44:00.425Z,15.58
2022-10-15T15:46:30.100Z,15.37
2022-10-15T15:49:00.004Z,15.21
2022-10-15T15:51:32.370Z,15.08
2022-10-15T15:54:04.713Z,14.91
2022-10-15T15:56:35.076Z,14.80
2022-10-15T15:59:06.002Z,14.82
2022-10-15T16:01:35.233Z,14.90
2022-10-15T16:04:04.436Z,14.73
2022-10-15T16:06:33.704Z,14.94
2022-10-15T16:09:02.919Z,15.05
2022-10-15T16:11:32.387Z,14.94
2022-10-15T16:14:03.714Z,15.00
2022-10-15T16:16:37.337Z,14.88
2022-10-15T16:19:07.466Z,14.83
2022-10-15T16:21:36.685Z,14.68
2022-10-15T16:24:07.109Z,14.66
2022-10-15T16:26:36.355Z,14.58
2022-10-15T16:29:05.647Z,14.46
2022-10-15T16:31:37.216Z,14.43
2022-10-15T16:34:06.560Z,14.39
2022-10-15T16:36:36.177Z,14.30
2022-10-15T16:39:05.938Z,14.36
2022-10-15T16:41:35.337Z,14.30
2022-10-15T16:44:04.632Z,14.45
2022-10-15T16:46:35.217Z,14.41
2022-10-15T16:49:04.739Z,14.26
2022-10-15T16:51:35.596Z,14.17
2022-10-15T16:54:06.444Z,14.15
2022-10-15T16:56:35.634Z,14.23
2022-10-15T16:59:04.964Z,14.15
2022-10-15T17:01:36.194Z,14.03
2022-10-15T17:04:05.889Z,14.05
2022-10-15T17:06:35.160Z,14.04
2022-10-15T17:09:05.168Z,14.03
2022-10-15T17:11:37.628Z,13.92
2022-10-15T17:14:10.999Z,13.79
2022-10-15T17:16:44.339Z,13.79
2022-10-15T17:19:19.536Z,13.67
2022-10-15T17:21:49.183Z,13.69
2022-10-15T17:24:20.596Z,13.52
2022-10-15T17:26:50.338Z,13.58
2022-10-15T17:29:23.332Z,13.59
2022-10-15T17:31:54.333Z,13.58
2022-10-15T17:34:23.645Z,13.54
2022-10-15T17:36:54.040Z,13.53
2022-10-15T17:39:23.655Z,13.43
2022-10-15T17:41:53.369Z,13.32
2022-10-15T17:44:22.944Z,13.37
2022-10-15T17:46:54.107Z,13.31
2022-10-15T17:49:30.384Z,13.07
2022-10-15T17:51:59.870Z,13.23
2022-10-15T17:54:29.199Z,13.23
2022-10-15T17:56:58.448Z,13.14
2022-10-15T17:59:27.666Z,13.16
2022-10-15T18:02:00.984Z,13.16
2022-10-15T18:04:32.062Z,13.13
2022-10-15T18:07:01.413Z,13.02
2022-10-15T18:09:30.910Z,13.05
2022-10-15T18:12:02.148Z,13.01
2022-10-15T18:14:33.763Z,12.99
2022-10-15T18:17:04.955Z,12.95
2022-10-15T18:19:34.158Z,12.96
2022-10-15T18:22:03.523Z,12.96
2022-10-15T18:24:33.213Z,12.84
2022-10-15T18:27:07.124Z,12.97
2022-10-15T18:29:36.634Z,12.86
2022-10-15T18:32:07.725Z,12.82
2022-10-15T18:34:37.023Z,12.91
2022-10-15T18:37:06.456Z,12.77
2022-10-15T18:39:35.814Z,12.78
2022-10-15T18:42:05.167Z,12.75
2022-10-15T18:44:34.758Z,12.91
2022-10-15T18:47:04.129Z,12.83
2022-10-15T18:49:38.898Z,12.74
2022-10-15T18:52:21.516Z,12.68
2022-10-15T18:54:57.538Z,12.77
2022-10-15T18:57:26.909Z,12.58
2022-10-15T18:59:56.383Z,12.64
2022-10-15T19:02:25.910Z,12.50
2022-10-15T19:04:56.933Z,12.66
2022-10-15T19:07:26.916Z,12.61
2022-10-15T19:10:00.688Z,12.54
2022-10-15T19:12:30.282Z,12.64
2022-10-15T19:14:59.526Z,12.52
2022-10-15T19:17:29.918Z,12.58
2022-10-15T19:20:00.493Z,12.52
2022-10-15T19:22:30.543Z,12.59
2022-10-15T19:25:00.541Z,12.58
2022-10-15T19:27:29.650Z,12.60
2022-10-15T19:29:58.862Z,12.47
2022-10-15T19:32:28.282Z,12.49
2022-10-15T19:34:57.656Z,12.48
2022-10-15T19:37:28.615Z,12.49
2022-10-15T19:39:57.929Z,12.35
2022-10-15T19:42:30.481Z,12.43
2022-10-15T19:44:59.908Z,12.36
2022-10-15T19:47:29.298Z,12.35
2022-10-15T19:49:58.678Z,12.25
2022-10-15T19:52:29.431Z,12.40
2022-10-15T19:54:58.570Z,12.29
2022-10-15T19:57:28.091Z,12.24
2022-10-15T19:59:57.428Z,12.24
2022-10-15T20:02:27.195Z,12.24
2022-10-15T20:04:56.329Z,12.27
2022-10-15T20:07:25.906Z,12.25
2022-10-15T20:09:56.769Z,12.14
2022-10-15T20:12:26.114Z,12.21
2022-10-15T20:14:55.305Z,12.10
2022-10-15T20:17:24.925Z,12.10
2022-10-15T20:19:54.613Z,12.07
2022-10-15T20:22:24.148Z,12.06
2022-10-15T20:24:53.957Z,12.16
2022-10-15T20:27:25.369Z,11.99
2022-10-15T20:29:54.683Z,12.09
2022-10-15T20:32:34.149Z,12.24
2022-10-15T20:35:05.892Z,12.21
2022-10-15T20:37:35.103Z,12.21
2022-10-15T20:40:05.112Z,12.38
2022-10-15T20:42:37.812Z,12.34
2022-10-15T20:45:08.071Z,12.33
2022-10-15T20:47:42.189Z,12.24
2022-10-15T20:50:18.300Z,12.37
2022-10-15T20:52:48.868Z,12.28
2022-10-15T20:55:18.729Z,12.37
2022-10-15T20:57:49.616Z,12.20
2022-10-15T21:00:18.852Z,12.26
2022-10-15T21:02:48.054Z,12.23
2022-10-15T21:05:17.579Z,12.28
2022-10-15T21:07:46.819Z,12.35
2022-10-15T21:10:16.376Z,12.30
2022-10-15T21:12:45.857Z,12.37
2022-10-15T21:15:16.830Z,12.44
2022-10-15T21:17:46.070Z,12.11
2022-10-15T21:20:15.440Z,12.32
2022-10-15T21:22:44.700Z,12.28
2022-10-15T21:25:13.952Z,12.20
2022-10-15T21:27:43.145Z,12.02
2022-10-15T21:30:13.379Z,11.94
2022-10-15T21:32:44.053Z,11.78
2022-10-15T21:35:13.236Z,11.84
2022-10-15T21:37:42.520Z,11.87
2022-10-15T21:40:13.412Z,11.77
2022-10-15T21:42:42.561Z,11.80
2022-10-15T21:45:12.660Z,11.68
2022-10-15T21:47:43.269Z,11.48
2022-10-15T21:50:12.582Z,11.50
2022-10-15T21:52:42.019Z,11.45
2022-10-15T21:55:11.506Z,11.39
2022-10-15T21:57:40.728Z,11.44
2022-10-15T22:00:16.241Z,11.31
2022-10-15T22:02:51.703Z,11.33
2022-10-15T22:05:20.892Z,11.23
2022-10-15T22:07:50.140Z,11.23
2022-10-15T22:10:19.534Z,11.32
2022-10-15T22:12:53.574Z,11.26
2022-10-15T22:15:22.806Z,11.13
2022-10-15T22:17:53.486Z,11.16
2022-10-15T22:20:23.948Z,11.17
2022-10-15T22:22:55.274Z,11.13
2022-10-15T22:25:24.571Z,11.20
2022-10-15T22:27:54.297Z,11.19
2022-10-15T22:30:23.557Z,11.09
2022-10-15T22:32:54.903Z,11.05
2022-10-15T22:35:24.182Z,11.02
2022-10-15T22:37:55.339Z,11.01
2022-10-15T22:40:24.658Z,10.95
2022-10-15T22:42:53.855Z,10.84
2022-10-15T22:45:23.157Z,10.86
2022-10-15T22:47:53.917Z,10.85
2022-10-15T22:50:23.606Z,10.81
2022-10-15T22:52:52.879Z,10.82
2022-10-15T22:55:22.069Z,10.76
2022-10-15T22:57:52.462Z,10.83
2022-10-15T23:00:22.173Z,10.73
2022-10-15T23:02:51.501Z,10.70
2022-10-15T23:05:22.232Z,10.63
2022-10-15T23:07:51.479Z,10.63
2022-10-15T23:10:20.726Z,10.57
2022-10-15T23:12:49.998Z,10.65
2022-10-15T23:15:19.377Z,10.56
2022-10-15T23:17:48.639Z,10.67
2022-10-15T23:20:17.843Z,10.66
2022-10-15T23:22:48.638Z,10.65
2022-10-15T23:25:17.913Z,10.69
2022-10-15T23:27:47.133Z,10.68
2022-10-15T23:30:24.624Z,10.53
2022-10-15T23:32:54.332Z,10.57
2022-10-15T23:35:23.574Z,10.53
2022-10-15T23:37:54.430Z,10.47
2022-10-15T23:40:23.581Z,10.55
2022-10-15T23:42:52.979Z,10.63
2022-10-15T23:45:22.359Z,10.68
2022-10-15T23:47:51.736Z,10.67
2022-10-15T23:50:21.429Z,10.67
2022-10-15T23:52:50.681Z,10.62
2022-10-15T23:55:21.264Z,10.53
2022-10-15T23:57:50.911Z,10.57
